Time;durP1;ratioP1;P1;durP2;ratioP2;P2;SDS_P1;SDS_P2;PMS_P1;PMS_P2;Temp;Humidity;BMP_temperature;BMP_pressure;BME280_temperature;BME280_humidity;BME280_pressure;Samples;Min_cycle;Max_cycle;Signal;HPM_P1;HPM_P2
2023/06/15 00:00:06;;;;;;;5.50;4.93;;;11.80;1.00;;;;;;8252364;28;20194;-65
2023/06/15 00:04:11;;;;;;;5.40;4.60;;;11.80;1.00;;;;;;8266985;28;20221;-66
2023/06/15 00:08:13;;;;;;;6.47;5.53;;;11.70;1.20;;;;;;8257005;28;20218;-66
2023/06/15 00:12:14;;;;;;;5.63;5.13;;;11.70;44.70;;;;;;8264011;28;20229;-65
2023/06/15 00:16:18;;;;;;;6.27;5.67;;;11.60;93.90;;;;;;8288337;28;20276;-66
2023/06/15 00:20:21;;;;;;;4.73;4.27;;;11.50;99.90;;;;;;8258643;28;20197;-64
2023/06/15 00:24:22;;;;;;;4.90;4.40;;;11.40;99.90;;;;;;8262785;28;20295;-66
2023/06/15 00:28:26;;;;;;;5.03;4.20;;;11.40;99.90;;;;;;8273517;28;20189;-66
2023/06/15 00:32:27;;;;;;;5.40;4.73;;;11.30;99.90;;;;;;8274188;28;20198;-66
2023/06/15 00:36:28;;;;;;;4.83;4.43;;;11.30;99.90;;;;;;8270780;28;20233;-65
2023/06/15 00:40:29;;;;;;;5.80;5.20;;;11.20;99.90;;;;;;8270383;28;20188;-66
2023/06/15 00:44:30;;;;;;;5.50;5.00;;;11.20;1.00;;;;;;8256188;28;20282;-66
2023/06/15 00:48:32;;;;;;;5.80;5.27;;;11.20;1.00;;;;;;8272113;28;20188;-66
2023/06/15 00:52:33;;;;;;;5.83;5.23;;;11.30;1.00;;;;;;8288809;28;20204;-66
2023/06/15 00:56:36;;;;;;;5.23;4.80;;;11.20;1.00;;;;;;8260036;28;20215;-67
2023/06/15 01:00:37;;;;;;;5.80;5.20;;;11.10;1.00;;;;;;8285084;28;20196;-65
2023/06/15 01:04:41;;;;;;;5.17;4.77;;;11.10;1.00;;;;;;8260998;28;20220;-66
2023/06/15 01:08:47;;;;;;;5.37;4.87;;;11.00;1.00;;;;;;8270896;28;20204;-66
2023/06/15 01:12:53;;;;;;;5.13;4.63;;;10.90;22.80;;;;;;8271530;28;20203;-66
2023/06/15 01:17:02;;;;;;;4.73;4.33;;;10.80;38.40;;;;;;8258795;28;20205;-67
2023/06/15 01:21:06;;;;;;;6.53;5.03;;;10.70;96.00;;;;;;8267189;28;20195;-67
2023/06/15 01:25:53;;;;;;;6.10;5.07;;;10.60;99.90;;;;;;8260027;28;20220;-66
2023/06/15 01:29:55;;;;;;;6.00;5.40;;;10.60;1.00;;;;;;8246086;28;20199;-67
2023/06/15 01:33:56;;;;;;;5.63;5.07;;;10.50;1.00;;;;;;8260886;28;20199;-66
2023/06/15 01:37:56;;;;;;;4.77;4.27;;;10.50;1.00;;;;;;8256468;28;20199;-70
2023/06/15 01:41:57;;;;;;;5.00;4.60;;;10.40;78.30;;;;;;8270120;28;20390;-65
2023/06/15 01:45:59;;;;;;;6.53;5.30;;;10.30;99.90;;;;;;8268506;28;20298;-66
2023/06/15 01:50:02;;;;;;;6.80;5.70;;;10.30;99.90;;;;;;8257245;28;20191;-67
2023/06/15 01:54:03;;;;;;;6.03;5.00;;;10.20;99.90;;;;;;8269171;28;20200;-66
2023/06/15 01:58:04;;;;;;;6.03;5.37;;;10.20;99.90;;;;;;8270158;28;20199;-65
2023/06/15 02:02:05;;;;;;;6.27;5.67;;;10.20;99.90;;;;;;8251472;28;20272;-66
2023/06/15 02:06:06;;;;;;;5.93;5.33;;;10.20;99.90;;;;;;8253960;28;20302;-66
2023/06/15 02:10:08;;;;;;;6.00;5.40;;;10.20;1.00;;;;;;8265086;28;20191;-66
2023/06/15 02:14:09;;;;;;;6.13;5.53;;;10.30;1.00;;;;;;8270130;28;20193;-67
2023/06/15 02:18:14;;;;;;;5.47;4.97;;;10.30;1.00;;;;;;8267934;28;20199;-66
2023/06/15 02:22:18;;;;;;;8.07;6.27;;;10.40;99.90;;;;;;8254360;28;20215;-65
2023/06/15 02:26:18;;;;;;;5.77;4.97;;;10.50;99.90;;;;;;8252874;28;20191;-65
2023/06/15 02:30:20;;;;;;;5.83;4.63;;;10.50;1.00;;;;;;8270590;28;20193;-66
2023/06/15 02:34:22;;;;;;;5.70;5.20;;;10.60;1.00;;;;;;8255699;28;20193;-66
2023/06/15 02:38:22;;;;;;;6.57;5.97;;;10.70;1.00;;;;;;8265583;28;20473;-67
2023/06/15 02:42:23;;;;;;;6.37;5.40;;;10.70;1.00;;;;;;8251733;28;20217;-65
2023/06/15 02:46:26;;;;;;;5.77;5.23;;;10.70;1.00;;;;;;8257645;28;20243;-67
2023/06/15 02:50:27;;;;;;;5.30;4.80;;;10.80;99.90;;;;;;8267963;28;20193;-66
2023/06/15 02:54:32;;;;;;;5.40;4.90;;;10.80;99.90;;;;;;8256430;28;20192;-68
2023/06/15 02:58:34;;;;;;;5.57;5.07;;;10.90;99.90;;;;;;8250989;28;20201;-68
2023/06/15 03:02:35;;;;;;;7.43;6.10;;;10.90;99.90;;;;;;8250060;28;20272;-68
2023/06/15 03:06:41;;;;;;;6.17;5.57;;;11.00;99.90;;;;;;8265751;28;20197;-68
2023/06/15 03:10:42;;;;;;;7.00;5.77;;;11.20;99.90;;;;;;8256758;28;20195;-67
2023/06/15 03:14:45;;;;;;;8.80;6.30;;;11.30;1.00;;;;;;8268458;28;20197;-66
2023/06/15 03:18:48;;;;;;;8.70;7.30;;;11.40;1.00;;;;;;8256495;28;20199;-66
2023/06/15 03:22:49;;;;;;;9.37;8.00;;;11.60;1.00;;;;;;8268587;28;20211;-66
2023/06/15 03:26:50;;;;;;;8.33;6.97;;;11.80;1.00;;;;;;8256744;28;20368;-66
2023/06/15 03:30:53;;;;;;;12.40;7.73;;;12.00;99.90;;;;;;8264758;28;20190;-66
2023/06/15 03:34:57;;;;;;;9.27;6.93;;;12.10;99.90;;;;;;8253165;28;20200;-66
2023/06/15 03:38:58;;;;;;;9.23;7.10;;;12.20;99.90;;;;;;8265508;28;20192;-71
2023/06/15 03:42:59;;;;;;;9.10;7.10;;;12.40;99.90;;;;;;8249102;28;20210;-67
2023/06/15 03:47:00;;;;;;;8.10;6.93;;;12.50;99.90;;;;;;8261731;28;20195;-66
2023/06/15 03:51:01;;;;;;;6.83;6.13;;;12.70;99.90;;;;;;8249048;28;20195;-66
2023/06/15 03:55:02;;;;;;;7.97;6.87;;;12.90;99.90;;;;;;8260933;28;20191;-66
2023/06/15 03:59:03;;;;;;;8.10;6.90;;;13.60;15.20;;;;;;8263920;28;20198;-66
2023/06/15 04:03:04;;;;;;;6.50;5.80;;;14.30;81.90;;;;;;8264530;28;20223;-66
2023/06/15 04:07:06;;;;;;;6.43;5.03;;;15.20;99.90;;;;;;8255609;28;20206;-67
2023/06/15 04:11:07;;;;;;;6.70;6.00;;;15.40;99.90;;;;;;8271397;28;20190;-66
2023/06/15 04:15:09;;;;;;;6.73;5.47;;;15.50;99.90;;;;;;8250428;28;20196;-67
2023/06/15 04:19:11;;;;;;;5.10;4.60;;;16.20;99.90;;;;;;8250054;28;20226;-67
2023/06/15 04:23:12;;;;;;;6.67;4.90;;;17.40;23.50;;;;;;8251241;28;20203;-67
2023/06/15 04:27:13;;;;;;;4.90;4.50;;;18.40;1.00;;;;;;8254467;28;20179;-67
2023/06/15 04:31:24;;;;;;;6.60;4.33;;;19.60;1.00;;;;;;8253995;28;20191;-70
2023/06/15 04:35:29;;;;;;;4.47;3.60;;;20.60;1.00;;;;;;8247140;28;20274;-67
2023/06/15 04:39:29;;;;;;;3.83;3.10;;;21.30;1.00;;;;;;8248891;28;20188;-67
2023/06/15 04:43:30;;;;;;;5.10;3.97;;;22.00;1.00;;;;;;8252102;28;20247;-67
2023/06/15 04:47:31;;;;;;;5.03;3.80;;;22.40;1.00;;;;;;8266062;28;20186;-68
2023/06/15 04:51:33;;;;;;;5.53;4.37;;;22.60;1.00;;;;;;8261254;28;20188;-69
2023/06/15 04:55:34;;;;;;;5.37;4.17;;;22.50;1.00;;;;;;8273341;28;20183;-68
2023/06/15 04:59:38;;;;;;;4.97;4.47;;;22.20;1.00;;;;;;8252810;28;20207;-67
2023/06/15 05:03:39;;;;;;;5.47;4.50;;;20.90;1.00;;;;;;8271845;28;20219;-68
2023/06/15 05:07:40;;;;;;;5.07;4.27;;;19.40;1.00;;;;;;8255278;28;20220;-69
2023/06/15 05:11:41;;;;;;;5.80;3.93;;;18.90;1.00;;;;;;8267829;28;20198;-69
2023/06/15 05:15:42;;;;;;;6.07;4.10;;;18.60;1.00;;;;;;8270248;28;20184;-68
2023/06/15 05:19:47;;;;;;;5.00;3.77;;;18.30;1.00;;;;;;8289222;28;20187;-67
2023/06/15 05:23:48;;;;;;;4.53;4.13;;;18.20;1.00;;;;;;8270765;28;20242;-69
2023/06/15 05:27:52;;;;;;;5.60;4.40;;;18.00;1.00;;;;;;8252676;28;20186;-68
2023/06/15 05:31:55;;;;;;;6.77;4.37;;;18.10;1.00;;;;;;8272248;28;20207;-69
2023/06/15 05:35:59;;;;;;;4.00;3.60;;;18.00;1.00;;;;;;8266144;28;20200;-68
2023/06/15 05:40:03;;;;;;;5.73;3.77;;;18.20;1.00;;;;;;8267711;28;20188;-69
2023/06/15 05:44:04;;;;;;;6.67;3.60;;;18.30;1.00;;;;;;8265430;28;20255;-67
2023/06/15 05:48:05;;;;;;;4.77;4.37;;;18.40;1.00;;;;;;8257677;28;20234;-67
2023/06/15 05:52:07;;;;;;;7.63;4.20;;;18.30;1.00;;;;;;8255545;28;20194;-69
2023/06/15 05:56:08;;;;;;;5.97;4.73;;;18.20;1.00;;;;;;8271536;28;20203;-68
2023/06/15 06:00:09;;;;;;;6.10;5.03;;;18.00;1.00;;;;;;8272074;28;20378;-67
2023/06/15 06:04:10;;;;;;;5.57;4.93;;;17.90;1.00;;;;;;8271091;28;20310;-65
2023/06/15 06:08:11;;;;;;;6.43;5.50;;;17.90;1.00;;;;;;8283846;28;20198;-66
2023/06/15 06:12:13;;;;;;;7.63;6.00;;;17.80;1.00;;;;;;8258627;28;20199;-69
2023/06/15 06:16:14;;;;;;;7.53;6.27;;;17.80;1.00;;;;;;8251626;28;20204;-67
2023/06/15 06:20:15;;;;;;;7.73;5.93;;;17.90;1.00;;;;;;8287876;28;20191;-66
2023/06/15 06:24:17;;;;;;;12.70;6.30;;;18.00;1.00;;;;;;8268042;28;20215;-68
2023/06/15 06:28:18;;;;;;;8.83;6.30;;;18.10;1.00;;;;;;8273048;28;20186;-69
2023/06/15 06:32:19;;;;;;;8.10;6.07;;;18.00;1.00;;;;;;8253566;28;20191;-67
2023/06/15 06:36:19;;;;;;;8.17;6.20;;;18.10;1.00;;;;;;8269636;28;20199;-67
2023/06/15 06:40:20;;;;;;;10.47;7.23;;;18.40;1.00;;;;;;8261600;28;20227;-70
2023/06/15 06:44:24;;;;;;;7.67;6.00;;;18.70;1.00;;;;;;8265892;28;20278;-69
2023/06/15 06:48:25;;;;;;;9.47;6.33;;;18.60;1.00;;;;;;8267246;28;20191;-70
2023/06/15 06:52:26;;;;;;;11.37;6.87;;;18.70;1.00;;;;;;8253888;28;20192;-69
2023/06/15 06:56:36;;;;;;;11.57;7.17;;;18.60;1.00;;;;;;8267239;28;20194;-70
2023/06/15 07:00:37;;;;;;;8.63;7.00;;;18.70;1.00;;;;;;8265998;28;20191;-71
2023/06/15 07:04:38;;;;;;;10.67;7.60;;;18.70;1.00;;;;;;8266657;28;20228;-70
2023/06/15 07:08:39;;;;;;;7.57;6.70;;;18.60;1.00;;;;;;8263064;28;20215;-67
2023/06/15 07:12:40;;;;;;;10.73;6.43;;;18.60;1.00;;;;;;8267805;28;20223;-68
2023/06/15 07:16:41;;;;;;;8.23;5.77;;;18.60;1.00;;;;;;8282493;28;20195;-66
2023/06/15 07:20:42;;;;;;;5.57;4.67;;;18.40;1.00;;;;;;8266726;28;20301;-67
2023/06/15 07:24:43;;;;;;;7.37;6.07;;;18.30;1.00;;;;;;8251784;28;20238;-68
2023/06/15 07:28:44;;;;;;;6.33;5.67;;;18.10;1.00;;;;;;8266628;28;20251;-68
2023/06/15 07:32:46;;;;;;;8.57;6.53;;;17.90;1.00;;;;;;8264765;28;20212;-68
2023/06/15 07:36:46;;;;;;;11.60;6.23;;;17.60;1.00;;;;;;8251451;28;20192;-67
2023/06/15 07:40:47;;;;;;;7.57;5.63;;;17.40;1.00;;;;;;8250075;28;20199;-69
2023/06/15 07:44:48;;;;;;;8.47;5.87;;;17.20;1.00;;;;;;8250829;28;20229;-67
2023/06/15 07:48:49;;;;;;;10.33;5.63;;;17.10;1.00;;;;;;8256515;28;20188;-66
2023/06/15 07:52:53;;;;;;;5.67;5.07;;;17.10;1.00;;;;;;8252068;28;20192;-68
2023/06/15 07:56:54;;;;;;;35.07;20.63;;;17.10;1.00;;;;;;8262924;28;20460;-68
2023/06/15 08:00:55;;;;;;;28.73;19.07;;;17.20;1.00;;;;;;8264540;28;20234;-68
2023/06/15 08:04:56;;;;;;;9.50;7.93;;;17.50;1.00;;;;;;8250191;28;20229;-67
2023/06/15 08:08:57;;;;;;;24.10;13.63;;;17.70;1.00;;;;;;8252930;28;20231;-69
2023/06/15 08:12:58;;;;;;;18.43;9.77;;;17.90;1.00;;;;;;8252880;28;20287;-67
2023/06/15 08:16:59;;;;;;;26.93;15.87;;;18.30;1.00;;;;;;8262837;28;20338;-67
2023/06/15 08:21:01;;;;;;;26.77;14.10;;;18.80;1.00;;;;;;8283198;28;20294;-68
2023/06/15 08:25:03;;;;;;;11.33;6.77;;;19.40;1.00;;;;;;8251176;28;20306;-66
2023/06/15 08:29:10;;;;;;;6.60;5.40;;;19.90;1.00;;;;;;8274102;28;20310;-67
2023/06/15 08:33:11;;;;;;;10.30;7.63;;;20.20;1.00;;;;;;8270187;28;20199;-70
2023/06/15 08:37:14;;;;;;;8.27;6.17;;;20.40;1.00;;;;;;8274062;28;20197;-68
2023/06/15 08:41:16;;;;;;;9.30;6.60;;;20.90;1.00;;;;;;8271670;28;20278;-67
2023/06/15 08:45:18;;;;;;;10.73;7.90;;;21.10;1.00;;;;;;8275730;28;20215;-68
2023/06/15 08:49:19;;;;;;;14.07;10.57;;;21.20;1.00;;;;;;8269146;28;20192;-68
2023/06/15 08:53:22;;;;;;;6.50;5.47;;;21.50;1.00;;;;;;8286945;28;20223;-66
2023/06/15 08:57:23;;;;;;;15.23;11.03;;;21.90;1.00;;;;;;8256576;28;20202;-70
2023/06/15 09:01:26;;;;;;;20.03;9.03;;;22.20;1.00;;;;;;8256908;28;20195;-72
2023/06/15 09:05:30;;;;;;;8.63;6.23;;;22.50;1.00;;;;;;8284454;28;20215;-71
2023/06/15 09:09:31;;;;;;;6.80;4.43;;;22.90;1.00;;;;;;8262540;28;20238;-70
2023/06/15 09:13:35;;;;;;;18.80;12.43;;;23.20;1.00;;;;;;8257882;28;20194;-69
2023/06/15 09:17:36;;;;;;;7.63;5.70;;;23.40;1.00;;;;;;8258312;28;20192;-70
2023/06/15 09:21:51;;;;;;;6.33;4.50;;;23.70;1.00;;;;;;8256322;28;20257;-68
2023/06/15 09:25:56;;;;;;;8.47;6.07;;;23.80;1.00;;;;;;8260830;28;20198;-69
2023/06/15 09:30:07;;;;;;;7.10;5.60;;;23.70;1.00;;;;;;8269323;28;20208;-67
2023/06/15 09:34:10;;;;;;;5.00;4.00;;;24.10;1.00;;;;;;8253980;28;20199;-68
2023/06/15 09:38:13;;;;;;;4.93;3.97;;;24.30;1.00;;;;;;8256293;28;20199;-71
2023/06/15 09:42:15;;;;;;;5.72;4.90;;;25.00;1.00;;;;;;8270894;28;20234;-72
2023/06/15 09:46:20;;;;;;;6.00;5.03;;;25.60;99.90;;;;;;8275155;28;20187;-71
2023/06/15 09:50:30;;;;;;;4.45;3.83;;;25.90;99.90;;;;;;8284242;28;20188;-68
2023/06/15 09:54:32;;;;;;;4.80;3.75;;;25.70;99.90;;;;;;8270417;28;20299;-67
2023/06/15 09:58:32;;;;;;;4.40;3.50;;;25.10;99.90;;;;;;8284481;28;20195;-68
2023/06/15 10:02:36;;;;;;;10.70;8.07;;;24.60;99.90;;;;;;8285395;28;20217;-68
2023/06/15 10:06:46;;;;;;;7.03;4.00;;;24.10;99.90;;;;;;8268356;28;20195;-68
2023/06/15 10:10:47;;;;;;;4.47;4.07;;;23.80;99.90;;;;;;8251171;28;20209;-67
2023/06/15 10:15:00;;;;;;;8.80;4.57;;;23.30;99.90;;;;;;8260482;28;20298;-67
2023/06/15 10:19:05;;;;;;;5.63;4.10;;;22.60;99.90;;;;;;8266041;28;20187;-68
2023/06/15 10:23:13;;;;;;;4.27;3.87;;;22.30;1.00;;;;;;8269232;28;20279;-68
2023/06/15 10:27:22;;;;;;;4.67;3.97;;;22.70;1.00;;;;;;8272034;28;20250;-69
2023/06/15 10:31:31;;;;;;;6.20;4.30;;;23.20;1.00;;;;;;8256525;28;20198;-69
2023/06/15 10:35:39;;;;;;;7.97;4.10;;;23.20;1.00;;;;;;8256588;28;20245;-69
2023/06/15 10:39:47;;;;;;;6.37;4.00;;;23.30;1.00;;;;;;8255913;28;20182;-72
2023/06/15 10:44:03;;;;;;;8.47;4.37;;;23.40;1.00;;;;;;8254077;28;20204;-68
2023/06/15 10:48:04;;;;;;;5.23;3.87;;;23.20;1.00;;;;;;8253604;28;20188;-67
2023/06/15 10:52:05;;;;;;;5.17;3.47;;;23.20;1.00;;;;;;8254932;28;20196;-67
2023/06/15 10:56:15;;;;;;;6.57;3.27;;;22.80;1.00;;;;;;8258018;28;20206;-69
2023/06/15 11:00:26;;;;;;;4.33;3.17;;;22.30;1.00;;;;;;8264733;28;20275;-69
2023/06/15 11:04:31;;;;;;;4.70;3.20;;;21.90;1.00;;;;;;8255904;28;20266;-69
2023/06/15 11:08:44;;;;;;;7.87;4.03;;;21.60;1.00;;;;;;8258718;28;20188;-67
2023/06/15 11:12:49;;;;;;;8.60;4.23;;;21.50;1.00;;;;;;8265752;28;20238;-67
2023/06/15 11:17:05;;;;;;;4.33;3.37;;;21.50;1.00;;;;;;8269987;28;20194;-66
2023/06/15 11:21:05;;;;;;;5.57;3.50;;;21.50;1.00;;;;;;8256342;28;20200;-67
2023/06/15 11:25:11;;;;;;;4.10;3.17;;;21.60;1.00;;;;;;8266945;28;20245;-68
2023/06/15 11:29:13;;;;;;;4.23;3.47;;;21.60;1.00;;;;;;8250281;28;20193;-68
2023/06/15 11:33:30;;;;;;;6.37;3.67;;;21.60;1.00;;;;;;8254419;28;20265;-66
2023/06/15 11:37:31;;;;;;;11.40;4.10;;;21.50;1.00;;;;;;8267760;28;20191;-68
2023/06/15 11:41:32;;;;;;;7.50;3.80;;;21.50;1.00;;;;;;8250053;28;20195;-69
2023/06/15 11:45:34;;;;;;;5.53;3.60;;;21.70;1.00;;;;;;8267791;28;20253;-70
2023/06/15 11:49:36;;;;;;;4.87;3.47;;;22.10;1.00;;;;;;8251153;28;20191;-69
2023/06/15 11:58:34;;;;;;;5.37;3.80;;;22.40;1.00;;;;;;8265950;28;20191;-68
2023/06/15 12:02:35;;;;;;;5.07;3.30;;;22.20;1.00;;;;;;8267121;28;20245;-67
2023/06/15 12:06:41;;;;;;;3.57;3.13;;;22.00;1.00;;;;;;8258133;28;20191;-68
2023/06/15 12:10:42;;;;;;;5.80;3.13;;;21.60;1.00;;;;;;8266228;28;20184;-67
2023/06/15 12:14:43;;;;;;;4.30;3.10;;;21.10;1.00;;;;;;8268052;28;20199;-67
2023/06/15 12:18:56;;;;;;;6.00;3.50;;;20.80;1.00;;;;;;8255788;28;20302;-66
2023/06/15 12:22:57;;;;;;;3.60;3.20;;;20.90;1.00;;;;;;8251253;28;20207;-67
2023/06/15 12:27:01;;;;;;;6.50;3.30;;;20.90;1.00;;;;;;8269472;28;20186;-67
2023/06/15 12:31:10;;;;;;;7.03;3.53;;;20.80;1.00;;;;;;8250736;28;20261;-68
2023/06/15 12:35:37;;;;;;;5.10;3.30;;;20.40;1.00;;;;;;8266743;28;20188;-67
2023/06/15 12:39:39;;;;;;;7.07;3.37;;;20.00;1.00;;;;;;8265976;28;20278;-66
2023/06/15 12:43:41;;;;;;;7.73;4.03;;;19.50;1.00;;;;;;8262820;28;20222;-64
2023/06/15 12:47:42;;;;;;;5.37;3.40;;;18.80;1.00;;;;;;8266945;28;20271;-65
2023/06/15 12:51:46;;;;;;;5.63;3.53;;;18.30;1.00;;;;;;8248927;28;20192;-65
2023/06/15 12:55:48;;;;;;;11.83;4.40;;;18.00;1.00;;;;;;8263553;28;20262;-65
2023/06/15 12:59:49;;;;;;;4.97;3.67;;;18.00;1.00;;;;;;8282482;28;20238;-66
2023/06/15 13:03:50;;;;;;;7.03;4.13;;;18.10;1.00;;;;;;8264760;28;20313;-65
2023/06/15 13:07:55;;;;;;;8.67;4.00;;;18.40;1.00;;;;;;8249555;28;20204;-67
2023/06/15 13:11:56;;;;;;;4.50;3.60;;;18.80;1.00;;;;;;8262537;28;20190;-67
2023/06/15 13:15:57;;;;;;;4.40;3.50;;;19.40;1.00;;;;;;8259067;28;20199;-67
2023/06/15 13:19:58;;;;;;;4.63;3.33;;;19.90;1.00;;;;;;8270222;28;20207;-67
2023/06/15 13:23:59;;;;;;;5.20;3.23;;;20.40;1.00;;;;;;8262081;28;20325;-66
2023/06/15 13:28:01;;;;;;;5.13;3.80;;;20.60;1.00;;;;;;8266987;28;20220;-67
2023/06/15 13:32:03;;;;;;;4.07;3.67;;;20.40;1.00;;;;;;8261297;28;20183;-66
2023/06/15 13:36:07;;;;;;;5.57;4.00;;;20.10;1.00;;;;;;8266823;28;20195;-67
2023/06/15 13:40:10;;;;;;;4.03;3.73;;;20.00;1.00;;;;;;8269097;28;20187;-65
2023/06/15 13:44:11;;;;;;;5.13;4.17;;;20.00;1.00;;;;;;8259350;28;20218;-67
2023/06/15 13:48:12;;;;;;;6.70;4.60;;;20.30;1.00;;;;;;8270526;28;20186;-68
2023/06/15 13:52:13;;;;;;;7.43;4.67;;;20.50;1.00;;;;;;8272057;28;20190;-64
2023/06/15 13:56:15;;;;;;;6.43;4.57;;;20.40;1.00;;;;;;8289565;28;20194;-63
2023/06/15 14:00:16;;;;;;;5.47;4.00;;;20.20;1.00;;;;;;8268156;28;20250;-63
2023/06/15 14:04:18;;;;;;;5.90;4.17;;;20.00;1.00;;;;;;8271943;28;20231;-64
2023/06/15 14:08:19;;;;;;;7.33;5.73;;;19.70;1.00;;;;;;8256645;28;20214;-64
2023/06/15 14:12:20;;;;;;;14.03;7.47;;;19.20;1.00;;;;;;8256268;28;20201;-64
2023/06/15 14:16:21;;;;;;;10.20;5.80;;;18.60;1.00;;;;;;8269553;28;20213;-64
2023/06/15 14:20:22;;;;;;;7.43;4.60;;;17.90;1.00;;;;;;8271275;28;20195;-65
2023/06/15 14:24:24;;;;;;;7.47;5.53;;;17.70;1.00;;;;;;8260541;28;20208;-65
2023/06/15 14:28:25;;;;;;;6.00;5.10;;;17.60;1.00;;;;;;8250751;28;20274;-65
2023/06/15 14:32:26;;;;;;;8.73;5.83;;;17.50;1.00;;;;;;8259165;28;20196;-64
2023/06/15 14:36:27;;;;;;;7.97;6.03;;;17.20;2.00;;;;;;8256540;28;20281;-65
2023/06/15 14:40:28;;;;;;;12.27;5.90;;;17.20;1.00;;;;;;8269833;28;20197;-65
2023/06/15 14:44:29;;;;;;;6.63;5.70;;;17.00;1.00;;;;;;8285277;28;20215;-64
2023/06/15 14:48:30;;;;;;;6.43;4.93;;;16.90;1.00;;;;;;8255558;28;20191;-65
2023/06/15 14:52:31;;;;;;;5.70;4.37;;;16.80;1.00;;;;;;8281073;28;20192;-65
2023/06/15 14:56:42;;;;;;;7.00;3.50;;;16.80;1.00;;;;;;8253441;28;20284;-64
2023/06/15 15:00:43;;;;;;;3.50;3.13;;;16.90;1.00;;;;;;8268365;28;20202;-66
2023/06/15 15:04:44;;;;;;;3.63;3.33;;;17.00;1.00;;;;;;8253874;28;20258;-64
2023/06/15 15:08:48;;;;;;;3.00;2.80;;;17.30;1.00;;;;;;8268593;28;20196;-65
2023/06/15 15:12:49;;;;;;;3.80;2.53;;;17.30;1.00;;;;;;8250269;28;20203;-67
2023/06/15 15:16:50;;;;;;;4.50;3.13;;;17.60;1.00;;;;;;8267407;28;20225;-65
2023/06/15 15:20:51;;;;;;;3.07;2.77;;;18.00;1.00;;;;;;8284761;28;20192;-65
2023/06/15 15:24:52;;;;;;;4.50;2.90;;;18.50;1.00;;;;;;8269407;28;20210;-66
2023/06/15 15:28:53;;;;;;;4.67;2.60;;;19.10;1.00;;;;;;8263838;28;20200;-67
2023/06/15 15:32:54;;;;;;;3.67;2.37;;;19.30;1.00;;;;;;8262706;28;20190;-67
2023/06/15 15:36:55;;;;;;;2.57;2.17;;;19.70;1.00;;;;;;8257577;28;20203;-66
2023/06/15 15:40:56;;;;;;;3.03;2.03;;;20.00;1.00;;;;;;8283581;28;20195;-65
2023/06/15 15:45:00;;;;;;;2.70;1.80;;;20.20;1.00;;;;;;8252428;28;20227;-66
2023/06/15 15:49:02;;;;;;;2.20;1.90;;;20.40;1.00;;;;;;8265440;28;20197;-66
2023/06/15 15:53:03;;;;;;;3.30;2.27;;;20.60;1.00;;;;;;8283919;28;20195;-66
2023/06/15 15:57:05;;;;;;;2.90;2.60;;;20.80;1.00;;;;;;8268399;28;20211;-65
2023/06/15 16:01:06;;;;;;;4.17;3.10;;;20.80;1.00;;;;;;8266811;28;20192;-67
2023/06/15 16:05:08;;;;;;;5.67;3.20;;;20.40;1.00;;;;;;8251541;28;20227;-67
2023/06/15 16:09:09;;;;;;;3.70;3.17;;;20.20;1.00;;;;;;8279100;28;20202;-66
2023/06/15 16:13:10;;;;;;;4.33;3.83;;;20.00;1.00;;;;;;8264861;28;20196;-67
2023/06/15 16:17:11;;;;;;;4.00;3.23;;;20.00;1.00;;;;;;8255373;28;20195;-67
2023/06/15 16:21:12;;;;;;;5.07;3.60;;;20.00;1.00;;;;;;8247540;28;20191;-67
2023/06/15 16:25:13;;;;;;;4.37;3.40;;;20.00;1.00;;;;;;8266995;28;20317;-67
2023/06/15 16:29:14;;;;;;;4.87;3.47;;;20.00;1.00;;;;;;8255800;28;20197;-67
2023/06/15 16:33:15;;;;;;;3.53;2.90;;;20.10;1.00;;;;;;8270102;28;20194;-69
2023/06/15 16:37:16;;;;;;;5.87;3.30;;;20.00;1.00;;;;;;8257922;28;20226;-67
2023/06/15 16:41:17;;;;;;;3.57;3.27;;;19.70;1.00;;;;;;8271824;28;20273;-67
2023/06/15 16:45:18;;;;;;;4.90;3.63;;;19.50;1.00;;;;;;8252608;28;20222;-67
2023/06/15 16:49:19;;;;;;;4.47;4.07;;;19.20;1.00;;;;;;8271541;28;20187;-70
2023/06/15 16:53:20;;;;;;;5.17;3.90;;;19.10;1.00;;;;;;8262474;28;20191;-67
2023/06/15 16:57:22;;;;;;;4.50;4.10;;;19.00;1.00;;;;;;8273550;28;20195;-66
2023/06/15 17:01:23;;;;;;;4.20;3.80;;;19.20;1.00;;;;;;8256694;28;20282;-66
2023/06/15 17:05:24;;;;;;;4.20;3.50;;;19.40;1.00;;;;;;8260765;28;20223;-66
2023/06/15 17:09:26;;;;;;;5.33;4.37;;;19.60;1.00;;;;;;8257513;28;20257;-66
2023/06/15 17:13:27;;;;;;;4.03;3.67;;;19.80;1.00;;;;;;8273327;28;20237;-67
2023/06/15 17:17:28;;;;;;;4.00;3.60;;;20.20;1.00;;;;;;8258735;28;20194;-66
2023/06/15 17:21:29;;;;;;;4.27;3.73;;;20.60;1.00;;;;;;8258386;28;20223;-66
2023/06/15 17:25:33;;;;;;;4.83;3.20;;;21.00;1.00;;;;;;8266990;28;20226;-66
2023/06/15 17:29:36;;;;;;;4.00;3.70;;;21.50;1.00;;;;;;8257981;28;20235;-66
2023/06/15 17:33:37;;;;;;;3.27;2.97;;;22.30;1.00;;;;;;8257893;28;20196;-67
2023/06/15 17:37:38;;;;;;;4.40;3.63;;;23.70;1.00;;;;;;8272749;28;20196;-68
2023/06/15 17:41:39;;;;;;;4.63;3.60;;;25.10;1.00;;;;;;8272214;28;20216;-67
2023/06/15 17:45:40;;;;;;;4.60;3.88;;;25.80;1.00;;;;;;8271244;28;20222;-66
2023/06/15 17:49:41;;;;;;;5.35;4.10;;;25.40;1.00;;;;;;8256084;28;20196;-66
2023/06/15 17:53:47;;;;;;;4.93;3.97;;;24.40;1.00;;;;;;8260663;28;20191;-67
2023/06/15 17:57:48;;;;;;;6.80;4.20;;;23.10;1.00;;;;;;8260873;28;20219;-67
2023/06/15 18:01:49;;;;;;;4.40;4.00;;;22.10;1.00;;;;;;8266603;28;20191;-66
2023/06/15 18:05:51;;;;;;;4.50;4.10;;;21.50;1.00;;;;;;8269470;28;20218;-66
2023/06/15 18:09:55;;;;;;;4.17;3.77;;;21.10;1.00;;;;;;8254276;28;20282;-66
2023/06/15 18:13:55;;;;;;;5.70;3.93;;;20.70;1.00;;;;;;8260662;28;20198;-67
2023/06/15 18:17:56;;;;;;;6.63;4.90;;;20.20;1.00;;;;;;8253728;28;20203;-67
2023/06/15 18:21:58;;;;;;;6.27;5.17;;;19.60;1.00;;;;;;8255942;28;20223;-67
2023/06/15 18:25:58;;;;;;;5.00;4.47;;;19.10;1.00;;;;;;8254641;28;20221;-67
2023/06/15 18:30:07;;;;;;;6.30;4.60;;;18.80;1.00;;;;;;8256209;28;20195;-65
2023/06/15 18:34:11;;;;;;;5.83;4.40;;;18.60;1.00;;;;;;8268902;28;20238;-66
2023/06/15 18:38:12;;;;;;;5.77;4.93;;;18.30;1.00;;;;;;8266952;28;20242;-66
2023/06/15 18:42:15;;;;;;;4.80;4.40;;;18.10;1.00;;;;;;8256919;28;20209;-65
2023/06/15 18:46:21;;;;;;;7.40;4.77;;;17.80;3.70;;;;;;8256384;28;20225;-66
2023/06/15 18:50:22;;;;;;;5.30;4.80;;;17.60;26.00;;;;;;8264816;28;20191;-65
2023/06/15 18:54:23;;;;;;;7.17;5.17;;;17.30;57.20;;;;;;8254822;28;20192;-65
2023/06/15 18:58:24;;;;;;;7.50;5.40;;;17.00;99.90;;;;;;8253743;28;20210;-66
2023/06/15 19:02:25;;;;;;;7.13;4.77;;;16.80;99.90;;;;;;8266950;28;20219;-65
2023/06/15 19:06:26;;;;;;;5.00;4.50;;;16.50;99.90;;;;;;8250852;28;20261;-65
2023/06/15 19:10:28;;;;;;;6.80;4.80;;;16.30;99.90;;;;;;8252197;28;20338;-65
2023/06/15 19:14:35;;;;;;;6.00;5.00;;;16.00;99.90;;;;;;8268427;28;20191;-65
2023/06/15 19:18:36;;;;;;;5.53;5.00;;;15.80;99.90;;;;;;8267238;28;20199;-65
2023/06/15 19:22:39;;;;;;;5.10;4.60;;;15.60;99.90;;;;;;8253063;28;20214;-66
2023/06/15 19:26:41;;;;;;;4.80;4.40;;;15.40;99.90;;;;;;8283187;28;20273;-66
2023/06/15 19:30:42;;;;;;;5.60;4.77;;;15.20;1.00;;;;;;8267305;28;20207;-65
2023/06/15 19:34:43;;;;;;;5.50;5.00;;;15.00;1.00;;;;;;8284094;28;20274;-66
2023/06/15 19:38:44;;;;;;;5.60;5.10;;;14.80;1.00;;;;;;8281682;28;20195;-63
2023/06/15 19:42:45;;;;;;;6.13;5.40;;;14.70;1.00;;;;;;8251102;28;20310;-62
2023/06/15 19:46:47;;;;;;;7.23;5.67;;;14.60;1.00;;;;;;8250548;28;20184;-64
2023/06/15 19:50:48;;;;;;;5.90;5.30;;;14.50;28.60;;;;;;8279489;28;20195;-63
2023/06/15 19:54:49;;;;;;;5.37;4.87;;;14.40;93.10;;;;;;8264955;28;20665;-64
2023/06/15 19:58:50;;;;;;;6.10;5.60;;;14.20;99.90;;;;;;8268752;28;20210;-64
2023/06/15 20:02:51;;;;;;;5.83;5.33;;;14.10;99.90;;;;;;8266088;28;20314;-63
2023/06/15 20:06:52;;;;;;;6.20;5.63;;;14.00;99.90;;;;;;8254335;28;20250;-64
2023/06/15 20:10:57;;;;;;;7.50;6.70;;;13.90;99.90;;;;;;8281433;28;20209;-66
2023/06/15 20:14:58;;;;;;;7.53;6.93;;;13.80;53.60;;;;;;8270906;28;20276;-65
2023/06/15 20:18:59;;;;;;;9.13;8.03;;;13.80;99.90;;;;;;8267223;28;20246;-64
2023/06/15 20:23:02;;;;;;;7.90;7.10;;;13.70;99.90;;;;;;8256405;28;20246;-63
2023/06/15 20:27:03;;;;;;;6.43;5.83;;;13.60;99.90;;;;;;8288284;28;20187;-63
2023/06/15 20:31:06;;;;;;;7.10;6.27;;;13.50;99.90;;;;;;8259430;28;20238;-64
2023/06/15 20:35:09;;;;;;;7.13;6.43;;;13.40;99.90;;;;;;8257771;28;20207;-64
2023/06/15 20:39:11;;;;;;;7.97;5.80;;;13.20;99.90;;;;;;8257238;28;20279;-64
2023/06/15 20:43:12;;;;;;;6.63;5.93;;;13.10;99.90;;;;;;8261142;28;20331;-66
2023/06/15 20:47:12;;;;;;;7.20;6.50;;;13.10;1.00;;;;;;8278414;28;20233;-64
2023/06/15 20:51:14;;;;;;;6.90;6.30;;;13.10;99.90;;;;;;8259061;28;20187;-64
2023/06/15 20:55:15;;;;;;;7.80;6.93;;;13.10;99.90;;;;;;8261699;28;20282;-64
2023/06/15 20:59:16;;;;;;;8.00;7.20;;;13.10;47.20;;;;;;8287093;28;20218;-65
2023/06/15 21:03:18;;;;;;;7.03;6.33;;;13.00;1.00;;;;;;8272398;28;20219;-64
2023/06/15 21:07:19;;;;;;;8.10;7.30;;;13.00;1.00;;;;;;8272460;28;20195;-65
2023/06/15 21:11:20;;;;;;;7.30;6.60;;;12.90;66.00;;;;;;8275526;28;20190;-65
2023/06/15 21:15:21;;;;;;;7.23;6.53;;;12.90;99.90;;;;;;8260968;28;20332;-65